Ocean Pearl — WDD4400 — position and weather

sailwx.info

Track history (hours):
 
Tides and Currents Weather Stations Pressure Air Temp Water Temp Dewpoint Dewpoint Depression Visibility Wind Speed Wind Dir Waves Ship Positions

Ocean Pearl

Owner: Ocean Traveler LLC, Wilmington, DE. More information available from US FCC via Universal Licensing System and Coast Guard Vessel Documentation Center.

Last reported at 2017-Dec-07 01:50 UTC. Time now 2018-Jan-24 09:26 UTC.
Position N 26°28' W 080°04'.
Warning: this ship's position is 48 days out of date.

Length 19 m; draft 2.1 m.

Type: Pleasure craft. MMSI: 367144240.

Date/timePositionNaut miles runAvg speedWind from/ knotsBaromVisibWave heightAir tempDewpointWater temp
2017-Dec-07 01:50N 26°28' W 080°04'13 6.4
2017-Dec-06 23:49N 26°40' W 080°03'2 6.3
2017-Dec-06 23:30N 26°42' W 080°03'2 3.3
2017-Dec-06 23:01N 26°44' W 080°03'3 5.5
2017-Dec-06 22:31N 26°46' W 080°01'4 7.9
2017-Dec-06 22:01N 26°50' W 080°02'4 8.1
2017-Dec-06 21:30N 26°54' W 080°02'4 8.1
2017-Dec-06 21:01N 26°59' W 080°03'  
2017-Dec-03 08:48N 36°51' W 075°55'3 9.5
2017-Dec-03 08:30N 36°54' W 075°57'6 9.6
2017-Dec-03 07:55N 36°58' W 076°01'114 8.6
2017-Dec-02 18:36N 38°50' W 076°27'1 7.8
2017-Dec-02 18:31N 38°51' W 076°27'  
Track history (hours):
 
Tides and Currents Weather Stations Pressure Air Temp Water Temp Dewpoint Dewpoint Depression Visibility Wind Speed Wind Dir Waves Ship Positions

Ocean Pearl

Owner: Ocean Traveler LLC, Wilmington, DE. More information available from US FCC via Universal Licensing System and Coast Guard Vessel Documentation Center.

Last reported at 2017-Dec-07 01:50 UTC. Time now 2018-Jan-24 09:26 UTC.
Position N 26°28' W 080°04'.
Warning: this ship's position is 48 days out of date.

Length 19 m; draft 2.1 m.

Type: Pleasure craft. MMSI: 367144240.

Date/timePositionNaut miles runAvg speedWind from/ knotsBaromVisibWave heightAir tempDewpointWater temp
2017-Dec-07 01:50N 26°28' W 080°04'13 6.4
2017-Dec-06 23:49N 26°40' W 080°03'2 6.3
2017-Dec-06 23:30N 26°42' W 080°03'2 3.3
2017-Dec-06 23:01N 26°44' W 080°03'3 5.5
2017-Dec-06 22:31N 26°46' W 080°01'4 7.9
2017-Dec-06 22:01N 26°50' W 080°02'4 8.1
2017-Dec-06 21:30N 26°54' W 080°02'4 8.1
2017-Dec-06 21:01N 26°59' W 080°03'  
2017-Dec-03 08:48N 36°51' W 075°55'3 9.5
2017-Dec-03 08:30N 36°54' W 075°57'6 9.6
2017-Dec-03 07:55N 36°58' W 076°01'114 8.6
2017-Dec-02 18:36N 38°50' W 076°27'1 7.8
2017-Dec-02 18:31N 38°51' W 076°27'  

Dump ship's entire track history